YUL weather

Montreal / Pierre Elliott Trudeau International Airport
Montréal, Quebec, Canada

Public forecast

Using degrees Celsius for public forecast. Weather courtesy of forecast.io.

METAR (pilot weather report)

Retrieved 2017/03/24 21:00 UTC (53 minutes ago):

CYUL 242100Z 13004KT 080V240 5/8SM -SN VV005 M01/M02 A3001 RMK SN8 /S03/ SLP166

TAF (pilot weather forecast)

Retrieved 2017/03/24 21:42 UTC (11 minutes ago):

TAF CYUL 242039Z 2421/2518 14012KT 3/4SM -SN VV005 TEMPO 2421/2501 3SM -SN -PL OVC010 PROB30 2421/2501 1/2SM SN VV002 FM250100 VRB03KT 3SM -SN OVC010 TEMPO 2501/2503 3/4SM -SN OVC008 PROB30 2501/2503 5SM -FZRA BR FM250300 27003KT 2SM -FZDZ BR OVC006 TEMPO 2503/2506 6SM BR OVC020 FM250600 28005KT 6SM BR OVC020 FM250800 30005KT P6SM SCT030 BKN150 FM251200 03010KT P6SM SCT050 FM251700 04008KT P6SM SKC RMK NXT FCST BY 250000Z